createdAt,value
2018-09-28T00:00:20.294Z,99.90
2018-09-28T00:02:48.886Z,99.90
2018-09-28T00:05:17.354Z,99.90
2018-09-28T00:07:45.931Z,99.90
2018-09-28T00:10:14.446Z,99.90
2018-09-28T00:12:42.934Z,99.90
2018-09-28T00:15:11.446Z,99.90
2018-09-28T00:17:39.925Z,99.90
2018-09-28T00:20:08.494Z,99.90
2018-09-28T00:22:37.234Z,99.90
2018-09-28T00:25:07.123Z,99.90
2018-09-28T00:27:35.989Z,99.90
2018-09-28T00:30:04.651Z,99.90
2018-09-28T00:32:33.190Z,99.90
2018-09-28T00:35:01.874Z,99.90
2018-09-28T00:37:32.549Z,99.90
2018-09-28T00:40:01.564Z,99.90
2018-09-28T00:42:30.399Z,99.90
2018-09-28T00:44:59.560Z,99.90
2018-09-28T00:47:30.050Z,99.90
2018-09-28T00:49:58.783Z,99.90
2018-09-28T00:52:27.456Z,99.90
2018-09-28T00:54:57.247Z,99.90
2018-09-28T00:57:25.960Z,99.90
2018-09-28T00:59:54.824Z,99.90
2018-09-28T01:02:23.562Z,99.90
2018-09-28T01:04:55.320Z,99.90
2018-09-28T01:07:25.186Z,99.90
2018-09-28T01:09:53.792Z,99.90
2018-09-28T01:12:22.422Z,99.90
2018-09-28T01:14:51.112Z,99.90
2018-09-28T01:17:19.645Z,99.90
2018-09-28T01:19:48.310Z,99.90
2018-09-28T01:22:19.965Z,99.90
2018-09-28T01:24:48.525Z,99.90
2018-09-28T01:27:17.242Z,99.90
2018-09-28T01:29:46.063Z,99.90
2018-09-28T01:32:14.706Z,99.90
2018-09-28T01:34:43.418Z,99.90
2018-09-28T01:37:12.355Z,99.90
2018-09-28T01:39:41.270Z,99.90
2018-09-28T01:42:10.018Z,99.90
2018-09-28T01:44:39.352Z,99.90
2018-09-28T01:47:07.946Z,99.90
2018-09-28T01:49:36.738Z,99.90
2018-09-28T01:52:05.538Z,99.90
2018-09-28T01:54:34.219Z,99.90
2018-09-28T01:57:02.931Z,99.90
2018-09-28T01:59:32.567Z,99.90
2018-09-28T02:02:01.385Z,99.90
2018-09-28T02:04:29.974Z,99.90
2018-09-28T02:06:58.729Z,99.90
2018-09-28T02:09:27.556Z,99.90
2018-09-28T02:11:56.335Z,99.90
2018-09-28T02:14:25.114Z,99.90
2018-09-28T02:19:31.451Z,99.90
2018-09-28T02:21:59.958Z,99.90
2018-09-28T02:24:28.419Z,99.90
2018-09-28T02:26:57.288Z,99.90
2018-09-28T02:29:26.000Z,99.90
2018-09-28T02:31:54.826Z,99.90
2018-09-28T02:34:23.465Z,99.90
2018-09-28T02:36:53.232Z,99.90
2018-09-28T02:39:21.831Z,99.90
2018-09-28T02:41:51.932Z,99.90
2018-09-28T02:44:20.723Z,99.90
2018-09-28T02:46:49.304Z,99.90
2018-09-28T02:49:18.056Z,99.90
2018-09-28T02:51:46.643Z,99.90
2018-09-28T02:54:15.079Z,99.90
2018-09-28T02:56:43.554Z,99.90
2018-09-28T02:59:12.054Z,99.90
2018-09-28T03:01:40.543Z,99.90
2018-09-28T03:04:09.160Z,99.90
2018-09-28T03:06:37.810Z,99.90
2018-09-28T03:09:08.390Z,99.90
2018-09-28T03:11:37.070Z,99.90
2018-09-28T03:14:05.666Z,99.90
2018-09-28T03:16:34.314Z,99.90
2018-09-28T03:19:02.944Z,99.90
2018-09-28T03:21:31.883Z,99.90
2018-09-28T03:24:00.871Z,99.90
2018-09-28T03:26:29.444Z,99.90
2018-09-28T03:28:57.894Z,99.90
2018-09-28T03:31:26.634Z,99.90
2018-09-28T03:33:55.262Z,99.90
2018-09-28T03:36:23.851Z,99.90
2018-09-28T03:38:52.434Z,99.90
2018-09-28T03:41:21.138Z,99.90
2018-09-28T03:43:49.792Z,99.90
2018-09-28T03:46:18.315Z,99.90
2018-09-28T03:48:46.855Z,99.90
2018-09-28T03:51:15.390Z,99.90
2018-09-28T03:53:43.874Z,99.90
2018-09-28T03:56:12.360Z,99.90
2018-09-28T03:58:40.918Z,99.90
2018-09-28T04:01:09.675Z,99.90
2018-09-28T04:03:38.255Z,99.90
2018-09-28T04:06:07.202Z,99.90
2018-09-28T04:08:36.327Z,99.90
2018-09-28T04:11:05.029Z,99.90
2018-09-28T04:13:33.602Z,99.90
2018-09-28T04:16:02.247Z,99.90
2018-09-28T04:18:30.894Z,99.90
2018-09-28T04:20:59.354Z,99.90
2018-09-28T04:23:28.013Z,99.90
2018-09-28T04:25:56.468Z,99.90
2018-09-28T04:28:25.004Z,99.90
2018-09-28T04:30:53.655Z,99.90
2018-09-28T04:33:22.332Z,99.90
2018-09-28T04:35:50.890Z,99.90
2018-09-28T04:38:19.399Z,99.90
2018-09-28T04:40:47.963Z,99.90
2018-09-28T04:43:16.654Z,99.90
2018-09-28T04:45:45.254Z,99.90
2018-09-28T04:48:13.691Z,99.90
2018-09-28T04:50:42.258Z,99.90
2018-09-28T04:53:10.826Z,99.90
2018-09-28T04:55:39.322Z,99.90
2018-09-28T04:58:07.871Z,99.90
2018-09-28T05:00:36.344Z,99.90
2018-09-28T05:03:04.934Z,99.90
2018-09-28T05:05:33.422Z,99.90
2018-09-28T05:08:01.942Z,99.90
2018-09-28T05:10:30.423Z,99.90
2018-09-28T05:12:59.034Z,99.90
2018-09-28T05:16:57.920Z,99.90
2018-09-28T05:19:29.733Z,99.90
2018-09-28T05:21:58.170Z,99.90
2018-09-28T05:24:26.715Z,99.90
2018-09-28T05:26:55.248Z,99.90
2018-09-28T05:29:23.830Z,99.90
2018-09-28T05:31:52.531Z,99.90
2018-09-28T05:34:20.881Z,99.90
2018-09-28T05:36:49.411Z,99.90
2018-09-28T05:39:18.106Z,99.90
2018-09-28T05:41:46.830Z,99.90
2018-09-28T05:44:15.334Z,99.90
2018-09-28T05:46:43.827Z,99.90
2018-09-28T05:49:12.335Z,99.90
2018-09-28T05:51:40.978Z,99.90
2018-09-28T05:54:09.966Z,99.90
2018-09-28T05:56:38.509Z,99.90
2018-09-28T05:59:12.453Z,99.90
2018-09-28T06:01:46.307Z,99.90
2018-09-28T06:04:20.298Z,99.90
2018-09-28T06:06:48.927Z,99.90
2018-09-28T06:09:17.472Z,99.90
2018-09-28T06:11:45.946Z,99.90
2018-09-28T06:14:14.744Z,99.90
2018-09-28T06:16:43.330Z,99.90
2018-09-28T06:19:11.796Z,99.90
2018-09-28T06:21:40.346Z,99.90
2018-09-28T06:24:08.956Z,99.90
2018-09-28T06:26:37.402Z,99.90
2018-09-28T06:29:05.895Z,99.90
2018-09-28T06:31:34.714Z,99.90
2018-09-28T06:34:03.190Z,99.90
2018-09-28T06:36:31.720Z,99.90
2018-09-28T06:39:00.520Z,99.90
2018-09-28T06:41:28.993Z,99.90
2018-09-28T06:43:57.485Z,99.90
2018-09-28T06:46:26.007Z,99.90
2018-09-28T06:48:54.474Z,99.90
2018-09-28T06:51:23.009Z,99.90
2018-09-28T06:53:51.498Z,99.90
2018-09-28T06:56:19.940Z,99.90
2018-09-28T06:58:48.494Z,99.90
2018-09-28T07:01:17.019Z,99.90
2018-09-28T07:03:45.507Z,99.90
2018-09-28T07:06:14.033Z,99.90
2018-09-28T07:08:42.481Z,99.90
2018-09-28T07:11:10.955Z,99.90
2018-09-28T07:13:39.448Z,99.90
2018-09-28T07:16:08.068Z,99.90
2018-09-28T07:18:36.565Z,99.90
2018-09-28T07:21:05.055Z,99.90
2018-09-28T07:23:33.507Z,99.90
2018-09-28T07:26:02.043Z,99.90
2018-09-28T07:28:30.543Z,99.90
2018-09-28T07:30:59.042Z,99.90
2018-09-28T07:33:27.730Z,99.90
2018-09-28T07:35:56.277Z,99.90
2018-09-28T07:38:24.804Z,99.90
2018-09-28T07:40:53.282Z,99.90
2018-09-28T07:43:22.286Z,99.90
2018-09-28T07:45:51.041Z,99.90
2018-09-28T07:48:19.536Z,99.90
2018-09-28T07:50:48.096Z,99.90
2018-09-28T07:53:16.694Z,99.90
2018-09-28T07:55:45.293Z,99.90
2018-09-28T07:58:13.758Z,99.90
2018-09-28T08:00:42.690Z,99.90
2018-09-28T08:03:11.357Z,99.90
2018-09-28T08:05:39.966Z,99.90
2018-09-28T08:08:08.430Z,99.90
2018-09-28T08:10:37.032Z,99.90
2018-09-28T08:13:05.526Z,98.40
2018-09-28T08:15:34.024Z,99.90
2018-09-28T08:18:02.663Z,99.90
2018-09-28T08:20:31.239Z,99.90
2018-09-28T08:22:59.790Z,99.90
2018-09-28T08:25:28.316Z,99.90
2018-09-28T08:27:56.827Z,99.90
2018-09-28T08:30:25.396Z,99.90
2018-09-28T08:32:53.834Z,99.90
2018-09-28T08:35:22.391Z,99.90
2018-09-28T08:37:50.977Z,99.90
2018-09-28T08:40:19.550Z,99.90
2018-09-28T08:42:48.020Z,99.90
2018-09-28T08:45:16.490Z,99.90
2018-09-28T08:47:45.526Z,99.90
2018-09-28T08:50:14.102Z,99.90
2018-09-28T08:52:42.618Z,99.80
2018-09-28T08:55:11.110Z,98.60
2018-09-28T08:57:39.599Z,98.90
2018-09-28T09:00:08.241Z,98.60
2018-09-28T09:02:36.694Z,99.90
2018-09-28T09:05:05.274Z,99.90
2018-09-28T09:07:34.017Z,99.70
2018-09-28T09:10:02.702Z,97.70
2018-09-28T09:12:31.210Z,95.30
2018-09-28T09:14:59.715Z,94.50
2018-09-28T09:17:28.173Z,95.50
2018-09-28T09:19:56.647Z,97.00
2018-09-28T09:22:25.179Z,94.90
2018-09-28T09:24:53.690Z,93.30
2018-09-28T09:27:22.279Z,94.00
2018-09-28T09:29:50.859Z,94.70
2018-09-28T09:32:19.326Z,94.40
2018-09-28T09:34:47.899Z,95.60
2018-09-28T09:37:19.138Z,95.70
2018-09-28T09:39:47.658Z,97.40
2018-09-28T09:42:16.242Z,98.40
2018-09-28T09:44:44.790Z,95.60
2018-09-28T09:47:13.278Z,95.30
2018-09-28T09:49:41.801Z,95.10
2018-09-28T09:52:10.300Z,95.00
2018-09-28T09:54:38.836Z,94.10
2018-09-28T09:57:07.328Z,92.70
2018-09-28T09:59:35.798Z,87.80
2018-09-28T10:02:13.687Z,85.90
2018-09-28T10:04:42.174Z,85.50
2018-09-28T10:07:10.662Z,84.00
2018-09-28T10:09:39.167Z,83.70
2018-09-28T10:12:07.719Z,84.20
2018-09-28T10:14:36.186Z,84.70
2018-09-28T10:17:04.699Z,82.80
2018-09-28T10:19:33.208Z,80.30
2018-09-28T10:22:01.899Z,83.20
2018-09-28T10:24:30.355Z,82.70
2018-09-28T10:26:58.998Z,83.20
2018-09-28T10:29:27.882Z,84.50
2018-09-28T10:31:56.334Z,81.90
2018-09-28T10:34:24.884Z,83.40
2018-09-28T10:36:53.276Z,83.10
2018-09-28T10:39:21.853Z,84.10
2018-09-28T10:41:50.315Z,86.80
2018-09-28T10:44:18.751Z,88.50
2018-09-28T10:46:47.276Z,86.00
2018-09-28T10:49:15.651Z,87.10
2018-09-28T10:51:44.487Z,84.60
2018-09-28T10:54:12.889Z,83.80
2018-09-28T10:56:41.307Z,83.40
2018-09-28T10:59:10.209Z,81.10
2018-09-28T11:01:38.894Z,79.20
2018-09-28T11:04:07.334Z,81.80
2018-09-28T11:06:36.066Z,79.40
2018-09-28T11:09:07.273Z,80.90
2018-09-28T11:11:35.802Z,81.70
2018-09-28T11:14:04.262Z,79.80
2018-09-28T11:16:32.719Z,80.00
2018-09-28T11:19:01.282Z,81.50
2018-09-28T11:21:29.674Z,77.80
2018-09-28T11:23:58.174Z,78.40
2018-09-28T11:26:27.111Z,76.00
2018-09-28T11:28:55.578Z,77.20
2018-09-28T11:31:24.085Z,74.70
2018-09-28T11:33:52.926Z,75.80
2018-09-28T11:36:22.290Z,73.60
2018-09-28T11:38:50.877Z,75.30
2018-09-28T11:41:19.372Z,71.50
2018-09-28T11:43:47.921Z,72.30
2018-09-28T11:46:16.470Z,69.70
2018-09-28T11:48:44.924Z,72.30
2018-09-28T11:51:13.538Z,73.80
2018-09-28T11:53:42.104Z,73.00
2018-09-28T11:56:10.669Z,71.50
2018-09-28T11:58:39.138Z,74.30
2018-09-28T12:01:07.607Z,74.90
2018-09-28T12:03:36.087Z,74.80
2018-09-28T12:06:04.555Z,74.90
2018-09-28T12:08:33.261Z,74.70
2018-09-28T12:11:02.095Z,72.50
2018-09-28T12:13:30.516Z,73.10
2018-09-28T12:15:59.022Z,74.50
2018-09-28T12:18:27.563Z,76.50
2018-09-28T12:20:56.049Z,76.90
2018-09-28T12:23:24.594Z,78.50
2018-09-28T12:25:53.278Z,77.80
2018-09-28T12:28:21.889Z,80.30
2018-09-28T12:30:50.422Z,77.60
2018-09-28T12:33:18.996Z,76.70
2018-09-28T12:35:47.514Z,75.10
2018-09-28T12:38:16.030Z,70.10
2018-09-28T12:40:44.568Z,73.00
2018-09-28T12:43:13.309Z,77.00
2018-09-28T12:45:41.848Z,74.30
2018-09-28T12:48:10.350Z,72.50
2018-09-28T12:50:38.856Z,74.00
2018-09-28T12:53:07.314Z,74.40
2018-09-28T12:55:35.798Z,71.50
2018-09-28T12:58:04.247Z,72.30
2018-09-28T13:00:32.705Z,73.30
2018-09-28T13:03:01.183Z,71.80
2018-09-28T13:05:29.726Z,68.50
2018-09-28T13:07:58.264Z,67.20
2018-09-28T13:10:26.696Z,66.00
2018-09-28T13:12:55.190Z,69.50
2018-09-28T13:15:23.633Z,68.60
2018-09-28T13:17:52.070Z,70.30
2018-09-28T13:20:20.558Z,66.90
2018-09-28T13:22:49.002Z,63.70
2018-09-28T13:25:17.459Z,61.70
2018-09-28T13:27:45.970Z,64.60
2018-09-28T13:30:14.454Z,66.20
2018-09-28T13:32:42.958Z,68.40
2018-09-28T13:35:11.346Z,69.40
2018-09-28T13:37:39.852Z,65.80
2018-09-28T13:40:08.354Z,66.60
2018-09-28T13:42:36.808Z,66.30
2018-09-28T13:45:05.421Z,66.90
2018-09-28T13:47:33.826Z,66.60
2018-09-28T13:50:02.290Z,66.20
2018-09-28T13:52:30.858Z,65.70
2018-09-28T13:54:59.283Z,66.40
2018-09-28T13:57:27.750Z,67.60
2018-09-28T13:59:56.263Z,67.80
2018-09-28T14:02:24.866Z,63.70
2018-09-28T14:04:53.322Z,64.60
2018-09-28T14:07:21.809Z,64.80
2018-09-28T14:09:50.273Z,63.40
2018-09-28T14:12:18.736Z,67.30
2018-09-28T14:14:47.299Z,67.80
2018-09-28T14:17:15.758Z,66.20
2018-09-28T14:19:44.295Z,66.60
2018-09-28T14:22:13.139Z,65.40
2018-09-28T14:24:41.649Z,67.60
2018-09-28T14:27:10.387Z,68.60
2018-09-28T14:29:38.950Z,67.40
2018-09-28T14:32:07.542Z,68.30
2018-09-28T14:34:36.079Z,68.90
2018-09-28T14:37:04.550Z,68.30
2018-09-28T14:39:33.273Z,67.80
2018-09-28T14:42:02.649Z,68.10
2018-09-28T14:44:37.682Z,68.90
2018-09-28T14:48:39.332Z,69.50
2018-09-28T14:54:09.998Z,69.30
2018-09-28T14:56:42.473Z,70.20
2018-09-28T14:59:13.871Z,69.30
2018-09-28T15:01:42.392Z,68.80
2018-09-28T15:06:52.050Z,69.90
2018-09-28T15:09:28.695Z,69.30
2018-09-28T15:12:08.003Z,70.10
2018-09-28T15:17:31.495Z,69.80
2018-09-28T15:21:42.596Z,71.60
2018-09-28T15:24:12.209Z,72.30
2018-09-28T15:26:41.357Z,72.20
2018-09-28T15:29:10.069Z,71.60
2018-09-28T15:31:38.534Z,72.10
2018-09-28T15:34:07.375Z,73.10
2018-09-28T15:36:35.863Z,70.90
2018-09-28T15:39:08.540Z,71.50
2018-09-28T15:41:37.026Z,71.60
2018-09-28T15:44:05.516Z,71.80
2018-09-28T15:46:33.998Z,71.60
2018-09-28T15:49:02.463Z,72.40
2018-09-28T15:51:30.982Z,71.20
2018-09-28T15:53:59.561Z,72.00
2018-09-28T15:56:28.135Z,72.60
2018-09-28T15:58:56.691Z,72.50
2018-09-28T16:01:25.259Z,73.40
2018-09-28T16:03:53.750Z,74.10
2018-09-28T16:06:22.207Z,73.80
2018-09-28T16:08:50.814Z,74.90
2018-09-28T16:11:19.286Z,74.50
2018-09-28T16:13:47.798Z,74.90
2018-09-28T16:16:16.322Z,75.80
2018-09-28T16:18:44.939Z,76.90
2018-09-28T16:21:13.439Z,78.60
2018-09-28T16:23:41.913Z,78.90
2018-09-28T16:26:10.378Z,79.40
2018-09-28T16:28:38.922Z,79.50
2018-09-28T16:31:07.403Z,79.40
2018-09-28T16:33:36.294Z,79.40
2018-09-28T16:36:04.805Z,80.50
2018-09-28T16:38:33.340Z,81.30
2018-09-28T16:41:02.071Z,78.60
2018-09-28T16:43:30.953Z,80.30
2018-09-28T16:45:59.646Z,85.30
2018-09-28T16:48:28.236Z,88.70
2018-09-28T16:50:57.086Z,90.90
2018-09-28T16:53:25.613Z,92.00
2018-09-28T16:55:54.479Z,92.10
2018-09-28T16:58:24.255Z,92.90
2018-09-28T17:00:53.074Z,93.00
2018-09-28T17:03:21.826Z,93.20
2018-09-28T17:05:50.380Z,93.90
2018-09-28T17:08:20.013Z,93.80
2018-09-28T17:10:48.582Z,94.40
2018-09-28T17:13:17.127Z,94.90
2018-09-28T17:15:45.958Z,95.50
2018-09-28T17:18:14.534Z,95.90
2018-09-28T17:20:43.133Z,96.60
2018-09-28T17:23:11.747Z,97.20
2018-09-28T17:25:40.378Z,97.80
2018-09-28T17:28:09.102Z,98.00
2018-09-28T17:30:37.653Z,98.00
2018-09-28T17:33:06.180Z,98.30
2018-09-28T17:35:36.868Z,99.10
2018-09-28T17:40:44.163Z,99.90
2018-09-28T17:43:13.047Z,99.90
2018-09-28T17:45:41.779Z,99.90
2018-09-28T17:48:10.401Z,99.90
2018-09-28T17:50:39.004Z,99.90
2018-09-28T17:53:07.976Z,99.90
2018-09-28T17:58:15.559Z,99.90
2018-09-28T18:00:44.406Z,99.90
2018-09-28T18:03:12.986Z,99.50
2018-09-28T18:05:41.624Z,99.90
2018-09-28T18:08:10.464Z,99.90
2018-09-28T18:11:05.738Z,99.90
2018-09-28T18:14:37.135Z,99.30
2018-09-28T18:17:17.439Z,98.20
2018-09-28T18:23:15.430Z,98.40
2018-09-28T18:28:31.043Z,98.40
2018-09-28T18:31:15.199Z,98.50
2018-09-28T18:36:55.502Z,99.60
2018-09-28T18:39:26.219Z,99.90
2018-09-28T18:42:00.853Z,99.90
2018-09-28T18:44:31.531Z,99.80
2018-09-28T18:47:07.522Z,99.90
2018-09-28T18:49:51.322Z,99.90
2018-09-28T18:52:25.953Z,99.90
2018-09-28T18:55:06.167Z,99.90
2018-09-28T18:57:36.468Z,99.90
2018-09-28T19:00:05.558Z,99.90
2018-09-28T19:02:34.131Z,99.90
2018-09-28T19:05:04.556Z,99.90
2018-09-28T19:07:33.299Z,99.90
2018-09-28T19:10:02.592Z,99.90
2018-09-28T19:12:34.665Z,99.90
2018-09-28T19:15:12.939Z,99.90
2018-09-28T19:17:41.498Z,99.90
2018-09-28T19:20:20.199Z,99.90
2018-09-28T19:22:48.908Z,99.90
2018-09-28T19:25:17.372Z,99.90
2018-09-28T19:27:45.927Z,99.90
2018-09-28T19:30:14.453Z,99.90
2018-09-28T19:32:43.002Z,99.90
2018-09-28T19:35:11.515Z,99.90
2018-09-28T19:37:47.918Z,99.90
2018-09-28T19:40:22.602Z,99.90
2018-09-28T19:42:55.119Z,99.90
2018-09-28T19:45:25.023Z,99.90
2018-09-28T19:47:53.767Z,99.90
2018-09-28T19:50:22.507Z,99.90
2018-09-28T19:52:52.704Z,99.90
2018-09-28T19:55:23.571Z,99.90
2018-09-28T19:58:04.599Z,99.90
2018-09-28T20:00:33.357Z,99.90
2018-09-28T20:03:02.267Z,99.90
2018-09-28T20:05:31.169Z,99.90
2018-09-28T20:07:59.730Z,99.90
2018-09-28T20:10:28.263Z,99.90
2018-09-28T20:12:56.736Z,99.90
2018-09-28T20:15:25.262Z,99.90
2018-09-28T20:17:53.755Z,99.90
2018-09-28T20:20:22.403Z,99.90
2018-09-28T20:22:50.930Z,99.90
2018-09-28T20:25:19.599Z,99.90
2018-09-28T20:27:48.190Z,99.90
2018-09-28T20:30:16.801Z,99.90
2018-09-28T20:32:45.381Z,99.90
2018-09-28T20:35:13.846Z,99.90
2018-09-28T20:37:42.663Z,99.90
2018-09-28T20:40:11.331Z,99.90
2018-09-28T20:42:39.840Z,99.90
2018-09-28T20:45:08.311Z,99.90
2018-09-28T20:47:36.830Z,99.90
2018-09-28T20:50:06.986Z,99.90
2018-09-28T20:52:35.627Z,99.90
2018-09-28T20:55:04.271Z,99.90
2018-09-28T20:57:32.759Z,99.90
2018-09-28T21:00:01.206Z,99.90
2018-09-28T21:02:29.674Z,99.90
2018-09-28T21:04:58.159Z,99.90
2018-09-28T21:07:26.740Z,99.90
2018-09-28T21:09:55.290Z,99.90
2018-09-28T21:12:23.722Z,99.90
2018-09-28T21:14:52.297Z,99.90
2018-09-28T21:17:20.790Z,99.90
2018-09-28T21:19:49.234Z,99.90
2018-09-28T21:22:17.698Z,99.90
2018-09-28T21:24:46.240Z,99.90
2018-09-28T21:27:14.758Z,99.90
2018-09-28T21:29:43.166Z,99.90
2018-09-28T21:32:11.582Z,99.90
2018-09-28T21:34:40.104Z,99.90
2018-09-28T21:37:08.594Z,99.90
2018-09-28T21:39:37.228Z,99.90
2018-09-28T21:42:05.711Z,99.90
2018-09-28T21:44:34.199Z,99.90
2018-09-28T21:47:03.169Z,99.90
2018-09-28T21:49:31.652Z,99.90
2018-09-28T21:52:00.296Z,99.90
2018-09-28T21:54:28.747Z,99.90
2018-09-28T21:56:57.230Z,99.90
2018-09-28T21:59:25.719Z,99.90
2018-09-28T22:01:54.209Z,99.90
2018-09-28T22:04:22.642Z,99.90
2018-09-28T22:06:51.158Z,99.90
2018-09-28T22:09:19.627Z,99.90
2018-09-28T22:11:48.131Z,99.90
2018-09-28T22:14:16.583Z,99.90
2018-09-28T22:16:45.075Z,99.90
2018-09-28T22:19:13.574Z,99.90
2018-09-28T22:21:42.062Z,99.90
2018-09-28T22:24:10.490Z,99.90
2018-09-28T22:26:39.038Z,99.90
2018-09-28T22:29:07.528Z,99.90
2018-09-28T22:31:36.828Z,99.90
2018-09-28T22:34:05.310Z,99.90
2018-09-28T22:36:33.750Z,99.90
2018-09-28T22:39:02.295Z,99.90
2018-09-28T22:41:30.787Z,99.90
2018-09-28T22:43:59.260Z,99.90
2018-09-28T22:46:27.834Z,99.90
2018-09-28T22:48:56.314Z,99.90
2018-09-28T22:51:24.880Z,99.90
2018-09-28T22:53:53.330Z,99.90
2018-09-28T22:56:21.768Z,99.90
2018-09-28T22:58:50.330Z,99.90
2018-09-28T23:01:18.807Z,99.90
2018-09-28T23:03:47.222Z,99.90
2018-09-28T23:06:15.718Z,99.90
2018-09-28T23:08:44.182Z,99.90
2018-09-28T23:11:12.676Z,99.90
2018-09-28T23:13:41.185Z,99.90
2018-09-28T23:16:09.717Z,99.90
2018-09-28T23:18:38.322Z,99.90
2018-09-28T23:21:06.834Z,99.90
2018-09-28T23:23:35.318Z,99.90
2018-09-28T23:26:03.815Z,99.90
2018-09-28T23:28:32.643Z,99.90
2018-09-28T23:31:01.417Z,99.90
2018-09-28T23:33:29.862Z,99.90
2018-09-28T23:35:58.266Z,99.90
2018-09-28T23:38:26.806Z,99.90
2018-09-28T23:40:55.521Z,99.90
2018-09-28T23:43:23.970Z,99.90
2018-09-28T23:45:52.542Z,99.90
2018-09-28T23:48:21.002Z,99.90
2018-09-28T23:50:49.439Z,99.90
2018-09-28T23:53:17.907Z,99.90
2018-09-28T23:55:46.347Z,99.90
2018-09-28T23:58:14.790Z,99.90
